Wednesday, April 16, 2014
04:54 UTC
  |  Log In   |  Register Free
Airport Search:

Mccarley Fld Airport
(U02)

Mccarley Fld Airport Diagram
No Airport Diagram Available

FAA data valid effective April 3, 2014 until May 29, 2014 (unless otherwise noted).

 
 
 
 
 
 
 
 
 
 
 
 
 
 

Current Aviation Weather for Mccarley Fld Airport (U02)

The most recent METAR observation for KPIH was updated at: 0353 UTC
METAR Summary (Translated METAR)
KPIH
160353Z 12003KT 10SM BLDU CLR 06/M07 A2992 RMK AO2 SLP116 T00561072
KIDA
(42.9 nm NE from KPIH)
160353Z AUTO 34010KT 10SM CLR 04/M08 A2989 RMK AO2 SLP118 T00441083
TAF Summary (Translated TAF)
KPIH
151837Z 1519/1618 25028G38KT P6SM SCT060 BKN090 FM160300 24015KT P6SM FEW070 SCT200 FM160600 22007KT P6SM BKN150
KIDA
(42.9 nm NE from KPIH)
160101Z 1601/1624 35022G30KT 5SM BLDU VCSH SCT040 BKN070 FM160300 30015G23KT P6SM FEW070 SCT200 FM160600 22008KT P6SM BKN150 FM161900 22012G20KT P6SM BKN120
  Airport Weather Conditions for U02

Current weather conditions are
not available for U02


The nearest NOAA weather station
is at PIH, (21 nm SW from U02)
  
 Current Weather at PIH
42° F
Blowing Dust
Southeast winds at 3.5 mph
PIH NOAA Radar

Pressure: 29.92 in
Humidity: 40%
Wind: Southeast at 3.5 MPH (3 KT)
Dew Point: 19.0°F
Visibility: 10.00 mi


Airport Weather Forecast for U02

Translated METAR and TAF for KPIH
Translated METAR for KPIH (0454 UTC 16 April 2014)
found at http://aviationweather.gov/adds/metars/
 
METAR text: KPIH 160353Z 12003KT 10SM BLDU CLR 06/M07 A2992 RMK AO2 SLP116 T00561072
Conditions at: KPIH (POCATELLO , ID, US) observed 0353 UTC 16 April 2014
Temperature: 5.6°C (42°F)
Dewpoint: -7.2°C (19°F) [RH = 39%]
Pressure (altimeter): 29.92 inches Hg (1013.3 mb)
[Sea-level pressure: 1011.6 mb]
Winds: from the ESE (120 degrees) at 3 MPH (3 knots; 1.6 m/s)
Visibility: 10 or more miles (16+ km)
Ceiling: at least 12,000 feet AGL
Clouds: sky clear below 12,000 feet AGL
Weather: BLDU  (blowing dust)
Translated TAF for KPIH
Forecast for: KPIH (POCATELLO , ID, US)
TAF Text: KPIH 152338Z 1600/1624 25033G42KT P6SM SCT030 BKN060
Forecast period: 0000 to 0300 UTC 16 April 2014
Forecast type: FROM: standard forecast or significant change
Winds: from the WSW (250 degrees) at 38 MPH (33 knots; 17.2 m/s)
gusting to 48 MPH (42 knots; 21.8 m/s)
Visibility: 6 or more miles (10+ km)
Ceiling: 6000 feet AGL
Clouds: scattered clouds at 3000 feet AGL
broken clouds at 6000 feet AGL
Weather: no significant weather forecast for this period
TAF Text: FM160300 24016G25KT P6SM FEW070 SCT200
Forecast period: 0300 to 0600 UTC 16 April 2014
Forecast type: FROM: standard forecast or significant change
Winds: from the WSW (240 degrees) at 18 MPH (16 knots; 8.3 m/s)
gusting to 29 MPH (25 knots; 13.0 m/s)
Visibility: 6 or more miles (10+ km)
Clouds: few clouds at 7000 feet AGL
scattered clouds at 20000 feet AGL
Weather: no significant weather forecast for this period
TAF Text: FM160600 22009KT P6SM BKN150
Forecast period: 0600 to 1900 UTC 16 April 2014
Forecast type: FROM: standard forecast or significant change
Winds: from the SW (220 degrees) at 10 MPH (9 knots; 4.7 m/s)
Visibility: 6 or more miles (10+ km)
Ceiling: 15000 feet AGL
Clouds: broken clouds at 15000 feet AGL
Weather: no significant weather forecast for this period
TAF Text: FM161900 25013G20KT P6SM BKN120
Forecast period: 1900 UTC 16 April 2014 to 0000 UTC 17 April 2014
Forecast type: FROM: standard forecast or significant change
Winds: from the WSW (250 degrees) at 15 MPH (13 knots; 6.8 m/s)
gusting to 23 MPH (20 knots; 10.4 m/s)
Visibility: 6 or more miles (10+ km)
Ceiling: 12000 feet AGL
Clouds: broken clouds at 12000 feet AGL
Weather: no significant weather forecast for this period

Find All Airport Services Find A Hotel Find A Rental Car Find A Golf Course Find A Restaurant $100 Hamburger



FBO's on the Field
FBO Company Facility Photos Services Transportation Aviation Fuel Prices: Prices include tax
Catering Weather Repair Courtesy Rental Type 100LL JetA JetA+ MOGAS 8087
 
Add another FBO Facility Photos Catering Weather Repair Courtesy Rental Type 100LL JetA JetA+ MOGAS 8087
Services Transportation Aviation Fuel Prices: Prices include tax
There are no FBO's currently reporting fuel at U02. List your FBO now


GlobalAir.com Airport Resource Center model-print
model-print
model-print
model-print